createdAt,value
2018-05-23T00:01:04.023Z,10.07
2018-05-23T00:03:31.522Z,11.83
2018-05-23T00:05:59.778Z,11.67
2018-05-23T00:08:27.295Z,11.63
2018-05-23T00:10:54.798Z,12.20
2018-05-23T00:13:22.294Z,14.60
2018-05-23T00:15:49.854Z,13.83
2018-05-23T00:18:17.354Z,15.50
2018-05-23T00:20:44.856Z,16.83
2018-05-23T00:23:12.382Z,13.10
2018-05-23T00:25:39.886Z,16.60
2018-05-23T00:28:08.142Z,12.67
2018-05-23T00:30:35.663Z,16.03
2018-05-23T00:33:03.162Z,14.17
2018-05-23T00:35:30.670Z,19.57
2018-05-23T00:37:58.227Z,16.13
2018-05-23T00:40:25.726Z,14.20
2018-05-23T00:42:54.230Z,13.77
2018-05-23T00:45:22.539Z,15.93
2018-05-23T00:47:50.059Z,12.23
2018-05-23T00:50:17.581Z,16.70
2018-05-23T00:52:45.095Z,12.43
2018-05-23T00:55:24.264Z,14.50
2018-05-23T00:57:51.834Z,13.00
2018-05-23T01:00:19.329Z,13.20
2018-05-23T01:02:46.823Z,13.87
2018-05-23T01:05:15.125Z,11.10
2018-05-23T01:07:42.618Z,15.07
2018-05-23T01:10:10.112Z,17.73
2018-05-23T01:12:38.523Z,17.10
2018-05-23T01:15:06.026Z,14.37
2018-05-23T01:17:33.554Z,13.97
2018-05-23T01:20:01.119Z,16.33
2018-05-23T01:22:29.374Z,17.97
2018-05-23T01:24:56.874Z,19.53
2018-05-23T01:27:24.402Z,22.90
2018-05-23T01:29:51.899Z,22.37
2018-05-23T01:32:19.404Z,24.30
2018-05-23T01:34:47.711Z,25.77
2018-05-23T01:37:15.206Z,26.73
2018-05-23T01:39:42.698Z,21.90
2018-05-23T01:42:11.003Z,25.20
2018-05-23T01:44:38.499Z,20.50
2018-05-23T01:47:06.000Z,18.30
2018-05-23T01:49:34.283Z,20.37
2018-05-23T01:52:01.779Z,19.67
2018-05-23T01:54:29.271Z,20.07
2018-05-23T01:56:56.791Z,21.13
2018-05-23T01:59:24.282Z,24.60
2018-05-23T02:01:51.774Z,20.53
2018-05-23T02:04:19.321Z,21.40
2018-05-23T02:06:46.818Z,20.43
2018-05-23T02:09:14.314Z,22.93
2018-05-23T02:11:41.859Z,19.53
2018-05-23T02:14:09.351Z,21.07
2018-05-23T02:16:36.838Z,22.63
2018-05-23T02:19:04.410Z,18.30
2018-05-23T02:21:31.902Z,20.37
2018-05-23T02:23:59.394Z,20.80
2018-05-23T02:26:27.302Z,20.37
2018-05-23T02:28:54.791Z,20.40
2018-05-23T02:31:22.282Z,18.80
2018-05-23T02:33:49.820Z,17.37
2018-05-23T02:36:17.316Z,20.33
2018-05-23T02:38:44.827Z,17.07
2018-05-23T02:41:12.374Z,20.37
2018-05-23T02:43:39.872Z,18.07
2018-05-23T02:46:07.370Z,20.13
2018-05-23T02:48:35.651Z,18.43
2018-05-23T02:51:03.148Z,17.00
2018-05-23T02:53:30.642Z,18.73
2018-05-23T02:55:58.257Z,20.10
2018-05-23T02:58:25.747Z,19.27
2018-05-23T03:00:53.243Z,16.33
2018-05-23T03:03:20.822Z,17.90
2018-05-23T03:05:48.315Z,15.53
2018-05-23T03:08:15.806Z,14.97
2018-05-23T03:10:43.377Z,16.97
2018-05-23T03:13:10.874Z,16.03
2018-05-23T03:15:38.367Z,15.90
2018-05-23T03:18:05.909Z,18.90
2018-05-23T03:20:33.402Z,19.23
2018-05-23T03:23:00.895Z,16.13
2018-05-23T03:25:29.230Z,19.87
2018-05-23T03:27:56.732Z,20.65
2018-05-23T03:30:25.000Z,23.37
2018-05-23T03:32:52.546Z,22.37
2018-05-23T03:35:20.042Z,19.53
2018-05-23T03:37:48.310Z,17.67
2018-05-23T03:40:15.830Z,18.57
2018-05-23T03:42:43.338Z,19.53
2018-05-23T03:45:11.600Z,18.90
2018-05-23T03:47:39.208Z,15.83
2018-05-23T03:50:06.711Z,16.00
2018-05-23T03:52:34.234Z,17.33
2018-05-23T03:55:01.796Z,16.93
2018-05-23T03:57:29.286Z,17.63
2018-05-23T04:00:08.480Z,19.43
2018-05-23T04:02:47.754Z,19.30
2018-05-23T04:05:27.183Z,18.23
2018-05-23T04:07:54.683Z,16.03
2018-05-23T04:10:22.187Z,15.03
2018-05-23T04:12:49.846Z,16.50
2018-05-23T04:15:17.344Z,15.87
2018-05-23T04:17:44.838Z,13.90
2018-05-23T04:20:12.370Z,17.87
2018-05-23T04:22:39.944Z,14.20
2018-05-23T04:25:07.439Z,17.17
2018-05-23T04:27:34.986Z,19.33
2018-05-23T04:30:02.482Z,22.33
2018-05-23T04:32:29.984Z,21.47
2018-05-23T04:34:57.543Z,26.10
2018-05-23T04:37:25.037Z,25.83
2018-05-23T04:39:52.534Z,32.40
2018-05-23T04:42:20.062Z,28.63
2018-05-23T04:44:47.571Z,24.43
2018-05-23T04:47:15.066Z,30.00
2018-05-23T04:49:43.376Z,26.33
2018-05-23T04:52:10.882Z,25.10
2018-05-23T04:54:38.385Z,23.37
2018-05-23T04:57:05.933Z,23.37
2018-05-23T04:59:33.422Z,18.33
2018-05-23T05:02:00.915Z,18.63
2018-05-23T05:04:28.487Z,22.90
2018-05-23T05:06:55.983Z,20.10
2018-05-23T05:09:24.244Z,19.33
2018-05-23T05:11:51.810Z,20.10
2018-05-23T05:14:20.072Z,18.07
2018-05-23T05:36:25.039Z,15.73
2018-05-23T10:29:25.147Z,3.35
2018-05-23T10:31:53.334Z,4.20
2018-05-23T10:36:47.915Z,2.75
2018-05-23T10:39:15.411Z,3.15
2018-05-23T10:41:43.032Z,4.18
2018-05-23T10:44:10.617Z,2.67
2018-05-23T10:46:38.120Z,3.33
2018-05-23T10:49:05.630Z,5.80
2018-05-23T10:51:33.216Z,3.05
2018-05-23T10:54:00.698Z,3.92
2018-05-23T10:56:28.346Z,2.90
2018-05-23T10:58:55.906Z,3.65
2018-05-23T11:01:23.509Z,3.17
2018-05-23T11:03:51.458Z,5.28
2018-05-23T11:06:18.975Z,2.60
2018-05-23T11:08:46.484Z,4.85
2018-05-23T11:11:13.977Z,3.08
2018-05-23T11:13:41.864Z,4.70
2018-05-23T11:16:09.345Z,2.47
2018-05-23T11:18:36.840Z,4.93
2018-05-23T11:21:04.354Z,4.95
2018-05-23T11:23:31.843Z,3.22
2018-05-23T11:25:59.336Z,4.32
2018-05-23T11:28:26.894Z,3.53
2018-05-23T11:30:54.390Z,3.97
2018-05-23T11:33:21.883Z,3.05
2018-05-23T11:35:49.411Z,3.10
2018-05-23T11:38:16.898Z,3.85
2018-05-23T11:40:44.399Z,2.78
2018-05-23T11:43:11.937Z,3.33
2018-05-23T11:45:39.430Z,4.82
2018-05-23T11:48:06.914Z,4.30
2018-05-23T11:50:34.431Z,3.65
2018-05-23T11:53:01.930Z,4.10
2018-05-23T11:55:29.423Z,2.60
2018-05-23T11:57:56.946Z,3.67
2018-05-23T12:00:24.435Z,2.65
2018-05-23T12:02:51.926Z,2.55
2018-05-23T12:05:19.482Z,3.10
2018-05-23T12:07:47.114Z,3.72
2018-05-23T12:10:14.692Z,3.12
2018-05-23T12:12:42.160Z,4.50
2018-05-23T12:15:09.662Z,4.70
2018-05-23T12:17:37.155Z,2.92
2018-05-23T12:20:04.686Z,2.35
2018-05-23T12:22:32.175Z,2.97
2018-05-23T12:24:59.676Z,3.92
2018-05-23T12:27:27.234Z,3.58
2018-05-23T12:29:54.722Z,3.80
2018-05-23T12:32:22.218Z,2.65
2018-05-23T12:34:49.738Z,4.60
2018-05-23T12:37:17.226Z,2.80
2018-05-23T12:39:44.718Z,3.03
2018-05-23T12:42:13.025Z,2.42
2018-05-23T12:44:40.526Z,7.43
2018-05-23T12:47:08.014Z,3.03
2018-05-23T12:49:36.353Z,2.62
2018-05-23T12:52:03.850Z,3.60
2018-05-23T12:54:32.113Z,4.37
2018-05-23T12:56:59.658Z,2.90
2018-05-23T12:59:27.231Z,4.37
2018-05-23T13:01:54.756Z,4.80
2018-05-23T13:04:22.279Z,2.50
2018-05-23T13:06:49.780Z,2.83
2018-05-23T13:09:17.271Z,2.30
2018-05-23T13:11:44.806Z,2.42
2018-05-23T13:14:12.294Z,3.10
2018-05-23T13:16:39.814Z,4.25
2018-05-23T13:19:07.390Z,4.35
2018-05-23T13:21:34.884Z,2.75
2018-05-23T13:24:02.387Z,2.53
2018-05-23T13:26:29.974Z,4.82
2018-05-23T13:28:57.463Z,3.25
2018-05-23T13:31:24.958Z,3.53
2018-05-23T13:33:52.508Z,2.40
2018-05-23T13:36:20.763Z,4.20
2018-05-23T13:38:48.261Z,2.85
2018-05-23T13:41:15.854Z,2.37
2018-05-23T13:43:43.343Z,3.17
2018-05-23T13:46:10.832Z,4.25
2018-05-23T13:48:38.363Z,2.40
2018-05-23T13:51:05.851Z,2.53
2018-05-23T13:53:33.341Z,2.17
2018-05-23T13:56:00.878Z,2.83
2018-05-23T13:58:30.066Z,4.72
2018-05-23T14:00:57.553Z,3.12
2018-05-23T14:03:25.068Z,2.25
2018-05-23T14:05:52.561Z,3.42
2018-05-23T14:08:20.810Z,5.85
2018-05-23T14:10:48.376Z,3.17
2018-05-23T14:13:15.865Z,2.75
2018-05-23T14:15:44.118Z,3.78
2018-05-23T14:18:11.658Z,2.65
2018-05-23T14:20:39.147Z,4.07
2018-05-23T14:23:07.403Z,2.55
2018-05-23T14:32:18.076Z,2.72
2018-05-23T14:34:45.566Z,2.40
2018-05-23T14:37:13.060Z,3.80
2018-05-23T14:39:40.607Z,2.30
2018-05-23T14:42:08.094Z,3.75
2018-05-23T14:44:35.579Z,5.15
2018-05-23T14:47:03.114Z,4.10
2018-05-23T14:49:31.377Z,3.03
2018-05-23T14:51:58.870Z,3.22
2018-05-23T14:54:26.427Z,3.87
2018-05-23T14:56:53.934Z,4.80
2018-05-23T14:59:21.483Z,3.12
2018-05-23T15:01:49.100Z,4.57
2018-05-23T15:04:17.432Z,2.55
2018-05-23T15:06:44.935Z,3.83
2018-05-23T15:09:13.225Z,2.90
2018-05-23T15:11:40.722Z,3.62
2018-05-23T15:14:08.210Z,5.72
2018-05-23T15:16:35.803Z,3.70
2018-05-23T15:19:03.290Z,2.28
2018-05-23T15:21:30.796Z,5.12
2018-05-23T15:23:58.342Z,2.17
2018-05-23T15:26:25.830Z,5.22
2018-05-23T15:28:54.090Z,3.20
2018-05-23T15:31:21.652Z,3.28
2018-05-23T15:33:49.118Z,2.70
2018-05-23T15:36:16.606Z,5.47
2018-05-23T15:38:44.935Z,3.30
2018-05-23T15:41:12.423Z,2.67
2018-05-23T15:43:39.909Z,3.60
2018-05-23T15:46:07.441Z,3.50
2018-05-23T15:48:34.932Z,2.37
2018-05-23T15:51:02.436Z,2.45
2018-05-23T15:53:29.974Z,3.55
2018-05-23T15:55:57.466Z,3.15
2018-05-23T15:58:25.490Z,3.45
2018-05-23T16:00:53.047Z,2.37
2018-05-23T16:03:21.294Z,3.33
2018-05-23T16:05:48.782Z,3.25
2018-05-23T16:08:16.344Z,5.50
2018-05-23T16:10:44.643Z,4.32
2018-05-23T16:13:12.130Z,3.08
2018-05-23T16:15:39.676Z,2.37
2018-05-23T16:18:07.158Z,2.95
2018-05-23T16:20:34.723Z,4.82
2018-05-23T16:23:02.287Z,4.70
2018-05-23T16:25:29.775Z,3.65
2018-05-23T16:27:58.034Z,2.80
2018-05-23T16:30:25.591Z,2.55
2018-05-23T16:32:53.079Z,4.03
2018-05-23T16:35:21.360Z,6.12
2018-05-23T16:37:48.894Z,4.95
2018-05-23T16:40:16.382Z,4.20
2018-05-23T16:42:44.635Z,4.03
2018-05-23T16:45:12.143Z,3.03
2018-05-23T16:47:39.640Z,3.72
2018-05-23T16:50:07.126Z,2.65
2018-05-23T16:52:35.454Z,2.42
2018-05-23T16:55:02.940Z,2.30
2018-05-23T16:57:30.431Z,3.00
2018-05-23T16:59:58.786Z,3.28
2018-05-23T17:02:26.290Z,2.30
2018-05-23T17:04:53.803Z,4.25
2018-05-23T17:07:21.332Z,3.10
2018-05-23T17:09:48.833Z,2.28
2018-05-23T17:12:16.329Z,3.80
2018-05-23T17:14:43.841Z,4.22
2018-05-23T17:17:11.329Z,3.00
2018-05-23T17:19:39.583Z,4.75
2018-05-23T17:22:07.147Z,2.72
2018-05-23T17:24:34.647Z,4.82
2018-05-23T17:27:02.894Z,4.18
2018-05-23T17:29:30.430Z,2.40
2018-05-23T17:31:57.927Z,3.12
2018-05-23T17:34:26.180Z,2.25
2018-05-23T17:36:53.698Z,3.53
2018-05-23T17:39:21.195Z,4.60
2018-05-23T17:41:48.696Z,3.15
2018-05-23T17:44:17.014Z,4.00
2018-05-23T17:46:45.485Z,2.75
2018-05-23T17:49:12.975Z,2.92
2018-05-23T17:51:40.527Z,3.08
2018-05-23T17:54:08.019Z,4.05
2018-05-23T17:56:35.510Z,3.08
2018-05-23T17:59:03.026Z,2.50
2018-05-23T18:01:30.517Z,2.60
2018-05-23T18:03:58.778Z,5.05
2018-05-23T18:06:26.334Z,4.53
2018-05-23T18:08:53.814Z,4.72
2018-05-23T18:11:22.072Z,3.50
2018-05-23T18:13:49.612Z,4.82
2018-05-23T18:16:17.095Z,3.90
2018-05-23T18:18:44.588Z,2.65
2018-05-23T18:21:12.102Z,4.10
2018-05-23T18:30:23.110Z,5.32
2018-05-23T18:32:50.605Z,3.42
2018-05-23T18:35:18.321Z,4.82
2018-05-23T18:37:45.892Z,5.15
2018-05-23T18:40:13.399Z,6.00
2018-05-23T18:42:40.914Z,3.30
2018-05-23T18:45:08.422Z,5.75
2018-05-23T18:47:35.910Z,4.97
2018-05-23T18:50:03.398Z,4.07
2018-05-23T18:52:30.979Z,4.62
2018-05-23T18:54:58.482Z,4.05
2018-05-23T18:57:26.874Z,3.95
2018-05-23T18:59:54.444Z,4.68
2018-05-23T19:02:21.938Z,4.35
2018-05-23T19:04:49.469Z,4.15
2018-05-23T19:07:16.997Z,5.37
2018-05-23T19:09:45.454Z,6.45
2018-05-23T19:12:19.061Z,4.45
2018-05-23T19:14:50.340Z,3.65
2018-05-23T19:17:21.000Z,5.90
2018-05-23T19:19:52.998Z,5.40
2018-05-23T19:22:23.713Z,5.95
2018-05-23T19:24:54.419Z,5.72
2018-05-23T19:27:23.783Z,3.33
2018-05-23T19:29:53.167Z,5.05
2018-05-23T19:32:24.218Z,5.22
2018-05-23T19:34:56.700Z,3.45
2018-05-23T19:37:27.531Z,3.25
2018-05-23T19:39:55.145Z,5.35
2018-05-23T19:42:22.725Z,4.93
2018-05-23T19:44:50.246Z,6.12
2018-05-23T19:47:17.797Z,6.87
2018-05-23T19:49:45.291Z,4.05
2018-05-23T19:52:12.980Z,6.57
2018-05-23T19:54:40.473Z,5.07
2018-05-23T19:57:08.021Z,5.75
2018-05-23T19:59:35.518Z,3.25
2018-05-23T20:02:03.120Z,5.00
2018-05-23T20:04:30.602Z,6.60
2018-05-23T20:06:58.102Z,4.65
2018-05-23T20:09:25.622Z,6.60
2018-05-23T20:11:53.199Z,5.15
2018-05-23T20:14:20.732Z,3.85
2018-05-23T20:16:48.997Z,5.62
2018-05-23T20:19:16.522Z,5.07
2018-05-23T20:21:44.019Z,3.60
2018-05-23T20:24:11.515Z,4.47
2018-05-23T20:26:39.091Z,5.32
2018-05-23T20:29:06.590Z,5.20
2018-05-23T20:31:34.099Z,5.82
2018-05-23T20:34:01.635Z,4.97
2018-05-23T20:36:29.129Z,4.65
2018-05-23T20:38:56.627Z,4.03
2018-05-23T20:41:24.174Z,4.97
2018-05-23T20:43:51.658Z,4.40
2018-05-23T20:46:19.150Z,5.68
2018-05-23T20:48:46.689Z,5.93
2018-05-23T20:51:14.199Z,5.37
2018-05-23T20:53:41.686Z,3.85
2018-05-23T20:56:09.247Z,4.80
2018-05-23T20:58:36.818Z,7.18
2018-05-23T21:01:04.234Z,5.28
2018-05-23T21:03:31.769Z,3.87
2018-05-23T21:05:59.257Z,5.05
2018-05-23T21:08:26.747Z,5.03
2018-05-23T21:10:55.031Z,4.93
2018-05-23T21:13:23.339Z,4.57
2018-05-23T21:15:50.886Z,4.05
2018-05-23T21:18:18.563Z,4.30
2018-05-23T21:20:46.106Z,5.05
2018-05-23T21:23:13.672Z,6.20
2018-05-23T21:25:41.282Z,4.50
2018-05-23T21:28:08.854Z,4.00
2018-05-23T21:30:36.403Z,3.97
2018-05-23T21:33:04.057Z,3.17
2018-05-23T21:35:31.618Z,4.33
2018-05-23T21:37:59.124Z,3.67
2018-05-23T21:40:26.651Z,5.87
2018-05-23T21:42:54.156Z,4.80
2018-05-23T21:45:22.418Z,5.10
2018-05-23T21:47:50.055Z,6.30
2018-05-23T21:50:17.574Z,3.93
2018-05-23T21:52:45.059Z,5.03
2018-05-23T21:55:12.630Z,6.40
2018-05-23T21:57:40.919Z,4.30
2018-05-23T22:00:08.443Z,5.53
2018-05-23T22:02:35.979Z,3.97
2018-05-23T22:05:04.282Z,4.93
2018-05-23T22:07:31.767Z,3.90
2018-05-23T22:09:59.282Z,4.53
2018-05-23T22:12:26.780Z,5.17
2018-05-23T22:14:54.267Z,6.57
2018-05-23T22:17:21.829Z,4.40
2018-05-23T22:19:49.315Z,5.67
2018-05-23T22:22:16.806Z,6.43
2018-05-23T22:24:44.367Z,5.40
2018-05-23T22:27:11.854Z,5.63
2018-05-23T22:29:39.339Z,6.90
2018-05-23T22:32:06.874Z,5.97
2018-05-23T22:34:35.126Z,4.40
2018-05-23T22:37:02.620Z,5.30
2018-05-23T22:39:30.166Z,6.07
2018-05-23T22:41:57.651Z,4.43
2018-05-23T22:44:25.142Z,6.17
2018-05-23T22:46:52.706Z,4.43
2018-05-23T22:49:20.975Z,6.00
2018-05-23T22:51:48.471Z,6.43
2018-05-23T22:54:15.989Z,5.00
2018-05-23T22:56:44.259Z,4.77
2018-05-23T22:59:11.753Z,5.03
2018-05-23T23:01:39.361Z,4.23
2018-05-23T23:04:07.546Z,5.47
2018-05-23T23:06:35.034Z,5.23
2018-05-23T23:09:02.594Z,5.73
2018-05-23T23:11:30.843Z,4.90
2018-05-23T23:13:58.331Z,4.53
2018-05-23T23:16:25.857Z,6.83
2018-05-23T23:18:53.430Z,4.67
2018-05-23T23:21:20.858Z,6.43
2018-05-23T23:23:48.373Z,5.03
2018-05-23T23:26:15.855Z,5.97
2018-05-23T23:28:43.334Z,6.67
2018-05-23T23:31:10.891Z,7.23
2018-05-23T23:33:38.382Z,5.13
2018-05-23T23:36:05.873Z,5.80
2018-05-23T23:38:34.169Z,8.03
2018-05-23T23:41:01.746Z,4.97
2018-05-23T23:43:29.235Z,6.00
2018-05-23T23:45:56.794Z,5.40
2018-05-23T23:48:24.294Z,10.40
2018-05-23T23:50:51.783Z,8.47
2018-05-23T23:53:19.303Z,7.83
2018-05-23T23:55:46.790Z,8.57
2018-05-23T23:58:14.283Z,8.13
